createdAt,value
2018-11-26T00:02:59.286Z,27.83
2018-11-26T00:08:03.750Z,29.23
2018-11-26T00:13:08.190Z,28.30
2018-11-26T00:18:12.633Z,30.07
2018-11-26T00:23:17.049Z,30.27
2018-11-26T00:28:21.457Z,29.60
2018-11-26T00:33:25.942Z,28.20
2018-11-26T00:38:30.382Z,28.00
2018-11-26T00:43:34.809Z,26.97
2018-11-26T00:48:39.201Z,26.97
2018-11-26T00:53:43.627Z,28.03
2018-11-26T00:58:48.065Z,28.03
2018-11-26T01:03:52.507Z,27.93
2018-11-26T01:08:56.934Z,28.83
2018-11-26T01:14:01.405Z,28.67
2018-11-26T01:19:06.189Z,27.53
2018-11-26T01:24:10.592Z,27.97
2018-11-26T01:29:15.006Z,27.40
2018-11-26T01:34:19.412Z,24.93
2018-11-26T01:39:23.868Z,23.30
2018-11-26T01:44:28.269Z,25.83
2018-11-26T01:49:32.661Z,27.03
2018-11-26T01:54:37.063Z,25.97
2018-11-26T01:59:41.511Z,25.87
2018-11-26T02:04:45.915Z,25.30
2018-11-26T02:09:50.353Z,23.60
2018-11-26T02:14:54.796Z,22.87
2018-11-26T02:19:59.193Z,23.13
2018-11-26T02:25:03.698Z,23.27
2018-11-26T02:30:09.302Z,24.03
2018-11-26T02:35:18.517Z,24.30
2018-11-26T02:40:31.264Z,23.80
2018-11-26T02:45:35.679Z,23.67
2018-11-26T02:50:40.100Z,25.77
2018-11-26T02:55:44.513Z,23.60
2018-11-26T03:00:48.942Z,22.57
2018-11-26T03:05:53.412Z,21.23
2018-11-26T03:10:57.890Z,22.07
2018-11-26T03:16:02.314Z,22.07
2018-11-26T03:21:06.715Z,23.20
2018-11-26T03:26:11.113Z,21.97
2018-11-26T03:31:15.601Z,22.07
2018-11-26T03:36:20.006Z,21.80
2018-11-26T03:41:24.910Z,21.27
2018-11-26T03:46:29.318Z,21.50
2018-11-26T03:51:33.713Z,23.07
2018-11-26T03:56:38.117Z,22.20
2018-11-26T04:01:42.601Z,20.93
2018-11-26T04:06:47.025Z,22.50
2018-11-26T04:11:51.429Z,22.10
2018-11-26T04:16:55.828Z,28.47
2018-11-26T04:22:00.266Z,21.77
2018-11-26T04:27:04.669Z,19.60
2018-11-26T04:32:09.108Z,20.50
2018-11-26T04:37:13.524Z,20.10
2018-11-26T04:42:17.946Z,21.20
2018-11-26T04:47:22.461Z,20.37
2018-11-26T04:52:26.901Z,20.97
2018-11-26T04:57:31.331Z,20.07
2018-11-26T05:02:35.762Z,21.43
2018-11-26T05:07:40.174Z,20.70
2018-11-26T05:12:44.617Z,20.37
2018-11-26T05:17:49.090Z,20.73
2018-11-26T05:22:53.485Z,20.00
2018-11-26T05:27:57.917Z,21.03
2018-11-26T05:33:02.329Z,21.47
2018-11-26T05:38:06.754Z,20.93
2018-11-26T05:43:11.182Z,20.67
2018-11-26T05:48:15.678Z,20.70
2018-11-26T05:53:20.101Z,21.80
2018-11-26T05:58:24.527Z,22.77
2018-11-26T06:03:28.980Z,23.67
2018-11-26T06:08:33.381Z,23.63
2018-11-26T06:13:37.825Z,25.03
2018-11-26T06:18:42.238Z,24.90
2018-11-26T06:23:46.667Z,22.60
2018-11-26T06:28:51.086Z,24.00
2018-11-26T06:33:55.477Z,26.33
2018-11-26T06:38:59.863Z,23.57
2018-11-26T06:44:04.612Z,25.67
2018-11-26T06:49:09.023Z,23.90
2018-11-26T06:54:13.426Z,25.00
2018-11-26T06:59:17.850Z,24.27
2018-11-26T07:04:22.255Z,23.67
2018-11-26T07:09:26.655Z,23.33
2018-11-26T07:14:31.061Z,26.33
2018-11-26T07:19:35.472Z,24.77
2018-11-26T07:24:39.879Z,24.87
2018-11-26T07:29:44.270Z,24.87
2018-11-26T07:34:48.658Z,23.83
2018-11-26T07:39:53.077Z,23.90
2018-11-26T07:44:57.484Z,22.87
2018-11-26T07:50:01.895Z,24.27
2018-11-26T07:55:08.773Z,23.37
2018-11-26T08:00:15.655Z,24.33
2018-11-26T08:05:24.170Z,24.47
2018-11-26T08:10:28.563Z,22.93
2018-11-26T08:15:32.954Z,23.17
2018-11-26T08:20:37.361Z,22.57
2018-11-26T08:25:41.769Z,22.70
2018-11-26T08:30:46.187Z,21.13
2018-11-26T08:35:54.653Z,21.67
2018-11-26T08:41:04.371Z,19.93
2018-11-26T08:46:08.779Z,21.67
2018-11-26T08:51:13.168Z,18.60
2018-11-26T08:56:17.585Z,20.00
2018-11-26T09:01:27.313Z,19.20
2018-11-26T09:06:31.768Z,20.73
2018-11-26T09:11:36.274Z,19.47
2018-11-26T09:16:40.789Z,20.73
2018-11-26T09:21:45.228Z,18.33
2018-11-26T09:26:49.677Z,18.30
2018-11-26T09:31:54.201Z,19.63
2018-11-26T09:36:58.663Z,18.63
2018-11-26T09:42:03.178Z,17.80
2018-11-26T09:47:07.640Z,16.63
2018-11-26T09:52:12.186Z,16.93
2018-11-26T09:57:16.745Z,17.20
2018-11-26T10:02:21.206Z,16.07
2018-11-26T10:07:25.693Z,16.47
2018-11-26T10:12:30.180Z,16.47
2018-11-26T10:17:34.645Z,17.57
2018-11-26T10:22:39.538Z,16.70
2018-11-26T10:27:44.018Z,16.73
2018-11-26T10:32:49.714Z,14.73
2018-11-26T10:37:54.239Z,16.30
2018-11-26T10:42:58.702Z,16.70
2018-11-26T10:48:03.246Z,16.10
2018-11-26T10:53:08.113Z,16.00
2018-11-26T10:58:12.343Z,17.47
2018-11-26T11:03:16.813Z,16.03
2018-11-26T11:08:21.271Z,15.93
2018-11-26T11:13:25.677Z,15.53
2018-11-26T11:18:30.134Z,17.40
2018-11-26T11:23:34.690Z,19.80
2018-11-26T11:28:39.154Z,20.47
2018-11-26T11:33:43.671Z,20.03
2018-11-26T11:38:48.154Z,20.60
2018-11-26T11:43:52.572Z,19.47
2018-11-26T11:48:56.995Z,19.17
2018-11-26T11:54:01.431Z,19.93
2018-11-26T11:59:06.495Z,19.50
2018-11-26T12:04:10.958Z,18.03
2018-11-26T12:09:15.419Z,19.07
2018-11-26T12:14:19.864Z,19.33
2018-11-26T12:19:24.347Z,18.47
2018-11-26T12:24:28.795Z,17.90
2018-11-26T12:29:33.243Z,18.63
2018-11-26T12:34:37.683Z,17.50
2018-11-26T12:39:42.105Z,18.63
2018-11-26T12:44:51.352Z,18.77
2018-11-26T12:49:55.807Z,18.60
2018-11-26T12:55:00.282Z,18.57
2018-11-26T13:00:05.435Z,20.67
2018-11-26T13:05:13.146Z,19.23
2018-11-26T13:10:19.315Z,18.87
2018-11-26T13:15:25.751Z,19.10
2018-11-26T13:20:31.156Z,17.83
2018-11-26T13:25:41.535Z,19.80
2018-11-26T13:30:47.436Z,18.93
2018-11-26T13:35:51.895Z,18.70
2018-11-26T13:40:56.322Z,18.67
2018-11-26T13:46:00.796Z,19.20
2018-11-26T13:51:05.579Z,19.20
2018-11-26T13:56:10.011Z,19.33
2018-11-26T14:01:14.526Z,18.70
2018-11-26T14:06:18.950Z,19.27
2018-11-26T14:11:23.430Z,19.70
2018-11-26T14:16:27.881Z,20.80
2018-11-26T14:21:32.303Z,20.27
2018-11-26T14:26:36.725Z,19.93
2018-11-26T14:31:41.145Z,20.13
2018-11-26T14:36:45.568Z,20.23
2018-11-26T14:41:50.962Z,18.60
2018-11-26T14:46:55.386Z,19.43
2018-11-26T14:51:59.845Z,17.87
2018-11-26T14:57:04.259Z,19.17
2018-11-26T15:02:08.692Z,18.30
2018-11-26T15:07:13.118Z,17.17
2018-11-26T15:12:17.694Z,15.73
2018-11-26T15:17:22.294Z,17.30
2018-11-26T15:22:26.855Z,16.43
2018-11-26T15:27:31.370Z,15.67
2018-11-26T15:32:35.867Z,17.00
2018-11-26T15:37:40.324Z,17.13
2018-11-26T15:42:44.864Z,17.43
2018-11-26T15:47:49.956Z,17.33
2018-11-26T15:52:54.416Z,17.23
2018-11-26T15:57:58.875Z,14.97
2018-11-26T16:03:03.316Z,13.83
2018-11-26T16:08:10.776Z,15.20
2018-11-26T16:13:16.564Z,13.87
2018-11-26T16:18:22.327Z,13.10
2018-11-26T16:23:26.767Z,13.17
2018-11-26T16:28:31.231Z,13.13
2018-11-26T16:33:35.623Z,13.33
2018-11-26T16:38:40.060Z,13.67
2018-11-26T16:43:44.531Z,13.43
2018-11-26T16:48:48.998Z,12.70
2018-11-26T16:53:53.414Z,12.93
2018-11-26T16:58:57.819Z,12.93
2018-11-26T17:04:02.295Z,12.97
2018-11-26T17:09:10.033Z,13.60
2018-11-26T17:14:14.446Z,13.60
2018-11-26T17:19:18.850Z,12.27
2018-11-26T17:24:23.309Z,13.73
2018-11-26T17:29:27.719Z,12.93
2018-11-26T17:34:32.135Z,14.17
2018-11-26T17:39:36.560Z,13.20
2018-11-26T17:44:41.031Z,12.80
2018-11-26T17:49:45.451Z,12.57
2018-11-26T17:54:49.904Z,11.80
2018-11-26T17:59:54.439Z,10.40
2018-11-26T18:04:58.986Z,11.07
2018-11-26T18:10:03.434Z,10.07
2018-11-26T18:15:16.851Z,10.93
2018-11-26T18:20:22.583Z,11.57
2018-11-26T18:25:27.044Z,11.33
2018-11-26T18:30:33.951Z,11.10
2018-11-26T18:35:39.120Z,11.33
2018-11-26T18:40:45.526Z,11.90
2018-11-26T18:45:49.948Z,10.47
2018-11-26T18:50:54.478Z,11.30
2018-11-26T18:55:58.934Z,11.80
2018-11-26T19:01:03.452Z,11.10
2018-11-26T19:06:08.091Z,12.50
2018-11-26T19:11:15.293Z,12.90
2018-11-26T19:16:22.952Z,12.33
2018-11-26T19:21:27.448Z,13.57
2018-11-26T19:26:31.886Z,15.07
2018-11-26T19:31:36.326Z,14.67
2018-11-26T19:36:40.819Z,16.83
2018-11-26T19:41:45.246Z,16.03
2018-11-26T19:46:49.670Z,15.30
2018-11-26T19:51:54.122Z,17.13
2018-11-26T19:56:58.695Z,17.17
2018-11-26T20:02:03.214Z,19.10
2018-11-26T20:07:08.031Z,18.53
2018-11-26T20:12:12.442Z,18.07
2018-11-26T20:17:16.847Z,18.40
2018-11-26T20:22:21.276Z,18.47
2018-11-26T20:27:25.795Z,17.80
2018-11-26T20:32:30.393Z,16.70
2018-11-26T20:37:34.804Z,17.23
2018-11-26T20:42:39.562Z,16.27
2018-11-26T20:47:44.860Z,16.80
2018-11-26T20:52:49.283Z,17.63
2018-11-26T20:57:55.605Z,17.37
2018-11-26T21:03:09.603Z,15.67
2018-11-26T21:08:14.107Z,17.43
2018-11-26T21:13:18.624Z,14.47
2018-11-26T21:18:23.048Z,16.07
2018-11-26T21:23:29.831Z,15.43
2018-11-26T21:28:34.239Z,14.60
2018-11-26T21:33:38.674Z,16.10
2018-11-26T21:38:43.092Z,14.13
2018-11-26T21:43:47.528Z,14.17
2018-11-26T21:48:51.930Z,15.17
2018-11-26T21:53:56.363Z,14.47
2018-11-26T21:59:00.794Z,14.87
2018-11-26T22:04:05.206Z,14.53
2018-11-26T22:09:10.535Z,14.37
2018-11-26T22:14:14.963Z,14.37
2018-11-26T22:19:19.388Z,15.23
2018-11-26T22:24:23.811Z,15.07
2018-11-26T22:29:28.227Z,14.87
2018-11-26T22:34:32.673Z,14.00
2018-11-26T22:39:37.100Z,13.50
2018-11-26T22:44:41.566Z,14.23
2018-11-26T22:49:45.979Z,14.17
2018-11-26T22:54:50.387Z,13.30
2018-11-26T22:59:54.835Z,13.80
2018-11-26T23:04:59.270Z,14.90
2018-11-26T23:10:04.225Z,13.53
2018-11-26T23:15:12.251Z,13.27
2018-11-26T23:20:18.279Z,13.97
2018-11-26T23:25:22.723Z,13.77
2018-11-26T23:30:28.929Z,14.37
2018-11-26T23:35:33.363Z,14.57
2018-11-26T23:40:37.794Z,15.20
2018-11-26T23:45:42.226Z,13.80
2018-11-26T23:50:46.655Z,14.93
2018-11-26T23:55:51.090Z,15.43
